createdAt,value
2018-08-06T00:01:11.732Z,65.13
2018-08-06T00:03:42.725Z,65.53
2018-08-06T00:06:13.295Z,65.46
2018-08-06T00:08:43.881Z,65.10
2018-08-06T00:11:14.464Z,65.53
2018-08-06T00:13:45.028Z,66.35
2018-08-06T00:16:15.485Z,66.44
2018-08-06T00:18:45.880Z,65.96
2018-08-06T00:21:16.361Z,65.65
2018-08-06T00:23:47.160Z,64.76
2018-08-06T00:26:18.067Z,64.47
2018-08-06T00:28:48.656Z,65.61
2018-08-06T00:31:19.222Z,65.97
2018-08-06T00:33:49.697Z,64.75
2018-08-06T00:36:20.065Z,64.33
2018-08-06T00:38:50.625Z,64.56
2018-08-06T00:41:21.119Z,65.37
2018-08-06T00:43:51.556Z,66.52
2018-08-06T00:46:22.061Z,66.39
2018-08-06T00:48:53.491Z,66.47
2018-08-06T00:51:25.120Z,67.23
2018-08-06T00:53:55.907Z,67.32
2018-08-06T00:56:26.866Z,66.81
2018-08-06T00:58:57.579Z,67.19
2018-08-06T01:01:28.236Z,67.41
2018-08-06T01:03:58.840Z,66.36
2018-08-06T01:06:30.292Z,66.00
2018-08-06T01:09:01.081Z,66.28
2018-08-06T01:11:31.978Z,66.92
2018-08-06T01:14:02.583Z,66.93
2018-08-06T01:16:33.994Z,66.33
2018-08-06T01:19:04.687Z,66.35
2018-08-06T01:21:35.172Z,66.68
2018-08-06T01:24:05.686Z,67.93
2018-08-06T01:26:36.161Z,67.36
2018-08-06T01:29:06.902Z,67.58
2018-08-06T01:31:37.386Z,67.17
2018-08-06T01:34:07.749Z,67.58
2018-08-06T01:36:38.263Z,68.35
2018-08-06T01:39:11.108Z,68.17
2018-08-06T01:41:41.595Z,68.31
2018-08-06T01:44:12.020Z,69.15
2018-08-06T01:46:46.357Z,68.88
2018-08-06T01:49:16.761Z,69.13
2018-08-06T01:51:47.227Z,69.51
2018-08-06T01:54:17.710Z,69.32
2018-08-06T01:56:48.200Z,69.75
2018-08-06T01:59:18.619Z,69.55
2018-08-06T02:01:49.089Z,69.21
2018-08-06T02:04:19.469Z,69.11
2018-08-06T02:06:49.824Z,69.82
2018-08-06T02:09:20.551Z,69.12
2018-08-06T02:11:51.032Z,68.85
2018-08-06T02:14:21.492Z,69.29
2018-08-06T02:16:51.959Z,69.29
2018-08-06T02:19:22.470Z,69.71
2018-08-06T02:21:52.963Z,69.91
2018-08-06T02:24:24.522Z,70.30
2018-08-06T02:26:55.996Z,70.85
2018-08-06T02:29:26.450Z,70.68
2018-08-06T02:31:57.085Z,71.26
2018-08-06T02:34:27.319Z,71.71
2018-08-06T02:36:57.995Z,72.17
2018-08-06T02:39:28.503Z,71.42
2018-08-06T02:41:59.117Z,71.67
2018-08-06T02:44:29.856Z,71.50
2018-08-06T02:47:00.641Z,71.60
2018-08-06T02:49:31.368Z,71.04
2018-08-06T02:52:02.141Z,70.86
2018-08-06T02:54:32.638Z,71.19
2018-08-06T02:57:03.193Z,71.29
2018-08-06T02:59:33.676Z,70.61
2018-08-06T03:02:04.269Z,71.45
2018-08-06T03:04:34.732Z,71.68
2018-08-06T03:07:05.123Z,72.08
2018-08-06T03:09:35.612Z,71.66
2018-08-06T03:12:06.407Z,71.44
2018-08-06T03:14:36.669Z,71.92
2018-08-06T03:17:07.441Z,71.45
2018-08-06T03:19:37.811Z,71.44
2018-08-06T03:22:08.403Z,72.45
2018-08-06T03:24:38.850Z,72.01
2018-08-06T03:27:09.513Z,71.93
2018-08-06T03:29:39.815Z,72.36
2018-08-06T03:32:10.235Z,73.20
2018-08-06T03:34:40.652Z,72.84
2018-08-06T03:37:11.111Z,73.17
2018-08-06T03:39:41.595Z,72.60
2018-08-06T03:42:11.848Z,71.74
2018-08-06T03:44:42.371Z,71.58
2018-08-06T03:47:12.858Z,72.40
2018-08-06T03:49:43.299Z,71.58
2018-08-06T03:52:13.810Z,71.51
2018-08-06T03:54:44.238Z,70.49
2018-08-06T03:57:14.822Z,69.18
2018-08-06T03:59:45.307Z,68.37
2018-08-06T04:02:15.785Z,68.28
2018-08-06T04:04:46.269Z,66.76
2018-08-06T04:07:16.844Z,65.97
2018-08-06T04:09:47.833Z,64.94
2018-08-06T04:12:18.226Z,64.01
2018-08-06T04:14:48.693Z,63.29
2018-08-06T04:17:19.234Z,62.25
2018-08-06T04:19:49.573Z,61.27
2018-08-06T04:22:20.193Z,58.72
2018-08-06T04:24:50.937Z,58.38
2018-08-06T04:27:21.441Z,57.17
2018-08-06T04:29:51.832Z,54.69
2018-08-06T04:32:22.467Z,54.50
2018-08-06T04:34:53.046Z,52.84
2018-08-06T04:37:23.567Z,52.20
2018-08-06T04:39:54.089Z,50.94
2018-08-06T04:42:24.494Z,50.89
2018-08-06T04:44:55.149Z,49.47
2018-08-06T04:47:25.516Z,48.10
2018-08-06T04:49:56.080Z,47.07
2018-08-06T04:52:26.440Z,46.79
2018-08-06T04:54:56.952Z,46.16
2018-08-06T04:57:27.460Z,45.56
2018-08-06T04:59:58.125Z,43.95
2018-08-06T05:02:28.600Z,43.77
2018-08-06T05:04:59.319Z,43.10
2018-08-06T05:07:29.666Z,44.09
2018-08-06T05:10:00.184Z,43.74
2018-08-06T05:12:30.662Z,42.07
2018-08-06T05:15:01.168Z,41.78
2018-08-06T05:17:31.733Z,42.03
2018-08-06T05:20:02.194Z,41.20
2018-08-06T05:22:32.586Z,40.02
2018-08-06T05:25:02.846Z,38.94
2018-08-06T05:27:34.422Z,37.87
2018-08-06T05:30:06.189Z,36.83
2018-08-06T05:32:36.695Z,36.60
2018-08-06T05:35:07.274Z,38.38
2018-08-06T05:37:37.662Z,37.87
2018-08-06T05:40:09.966Z,38.22
2018-08-06T05:42:40.629Z,37.58
2018-08-06T05:45:11.792Z,37.81
2018-08-06T05:47:42.330Z,37.45
2018-08-06T05:50:14.164Z,37.88
2018-08-06T05:52:44.627Z,37.31
2018-08-06T05:55:15.131Z,35.23
2018-08-06T05:57:45.798Z,36.18
2018-08-06T06:00:18.972Z,35.99
2018-08-06T06:02:49.582Z,35.08
2018-08-06T06:05:19.949Z,36.88
2018-08-06T06:07:50.418Z,36.62
2018-08-06T06:10:20.843Z,35.58
2018-08-06T06:12:51.473Z,33.86
2018-08-06T06:16:25.453Z,34.16
2018-08-06T06:18:56.608Z,31.45
2018-08-06T06:21:27.246Z,31.96
2018-08-06T06:23:57.965Z,30.79
2018-08-06T06:26:28.432Z,30.30
2018-08-06T06:29:00.076Z,30.50
2018-08-06T06:31:30.822Z,30.91
2018-08-06T06:34:01.299Z,29.82
2018-08-06T06:36:31.605Z,27.89
2018-08-06T06:39:02.050Z,28.97
2018-08-06T06:41:32.436Z,29.90
2018-08-06T06:44:02.915Z,30.16
2018-08-06T06:46:33.551Z,27.81
2018-08-06T06:49:05.253Z,28.46
2018-08-06T06:51:35.723Z,29.79
2018-08-06T06:54:06.763Z,29.67
2018-08-06T06:56:37.423Z,30.09
2018-08-06T06:59:08.191Z,28.41
2018-08-06T07:01:38.635Z,27.04
2018-08-06T07:04:09.007Z,27.63
2018-08-06T07:06:40.301Z,29.05
2018-08-06T07:09:12.013Z,28.48
2018-08-06T07:11:42.703Z,28.60
2018-08-06T07:14:13.449Z,28.28
2018-08-06T07:16:44.335Z,27.36
2018-08-06T07:19:15.043Z,25.81
2018-08-06T07:21:45.700Z,26.82
2018-08-06T07:24:16.282Z,26.32
2018-08-06T07:26:46.700Z,25.61
2018-08-06T07:29:17.566Z,26.23
2018-08-06T07:31:48.259Z,26.03
2018-08-06T07:34:18.867Z,25.38
2018-08-06T07:36:49.305Z,26.26
2018-08-06T07:39:19.780Z,25.79
2018-08-06T07:41:50.473Z,24.99
2018-08-06T07:44:20.951Z,25.55
2018-08-06T07:46:51.335Z,24.83
2018-08-06T07:49:22.137Z,24.97
2018-08-06T07:51:52.954Z,25.68
2018-08-06T07:54:23.695Z,25.45
2018-08-06T07:56:54.642Z,25.07
2018-08-06T07:59:25.574Z,23.24
2018-08-06T08:01:56.285Z,23.05
2018-08-06T08:04:26.717Z,23.01
2018-08-06T08:06:57.441Z,22.52
2018-08-06T08:09:28.373Z,22.10
2018-08-06T08:11:59.066Z,24.05
2018-08-06T08:14:29.577Z,24.73
2018-08-06T08:17:00.506Z,25.82
2018-08-06T08:19:31.064Z,24.16
2018-08-06T08:22:02.388Z,22.48
2018-08-06T08:24:33.979Z,23.01
2018-08-06T08:27:04.514Z,21.62
2018-08-06T08:29:35.576Z,23.51
2018-08-06T08:32:06.054Z,23.29
2018-08-06T08:34:36.639Z,22.31
2018-08-06T08:37:07.426Z,21.37
2018-08-06T08:39:39.844Z,20.72
2018-08-06T08:42:10.480Z,20.99
2018-08-06T08:44:40.861Z,20.28
2018-08-06T08:47:11.262Z,20.89
2018-08-06T08:49:42.048Z,21.05
2018-08-06T08:52:12.627Z,22.32
2018-08-06T08:54:42.946Z,21.82
2018-08-06T08:57:13.345Z,20.96
2018-08-06T08:59:43.791Z,21.06
2018-08-06T09:02:14.271Z,21.53
2018-08-06T09:04:44.780Z,22.45
2018-08-06T09:07:15.204Z,21.93
2018-08-06T09:09:45.722Z,22.19
2018-08-06T09:12:16.390Z,21.76
2018-08-06T09:14:46.823Z,22.73
2018-08-06T09:17:17.179Z,21.61
2018-08-06T09:19:47.776Z,21.50
2018-08-06T09:22:19.083Z,21.16
2018-08-06T09:24:49.955Z,20.10
2018-08-06T09:27:21.344Z,20.30
2018-08-06T09:29:51.885Z,19.18
2018-08-06T09:32:22.711Z,19.60
2018-08-06T09:34:53.237Z,19.49
2018-08-06T09:37:23.769Z,18.88
2018-08-06T09:39:54.496Z,18.15
2018-08-06T09:42:25.362Z,19.90
2018-08-06T09:44:56.019Z,20.53
2018-08-06T09:47:27.327Z,19.78
2018-08-06T09:49:59.044Z,19.50
2018-08-06T09:52:29.719Z,19.49
2018-08-06T09:55:00.241Z,19.91
2018-08-06T09:57:30.710Z,20.77
2018-08-06T10:00:01.503Z,20.24
2018-08-06T10:02:32.078Z,20.75
2018-08-06T10:05:02.544Z,20.79
2018-08-06T10:07:33.295Z,18.10
2018-08-06T10:10:03.859Z,18.35
2018-08-06T10:12:34.853Z,20.11
2018-08-06T10:15:05.978Z,19.87
2018-08-06T10:17:36.378Z,21.36
2018-08-06T10:20:08.948Z,20.62
2018-08-06T10:22:39.939Z,20.98
2018-08-06T10:25:12.397Z,20.04
2018-08-06T10:27:43.873Z,19.17
2018-08-06T10:30:15.495Z,19.39
2018-08-06T10:32:46.225Z,19.44
2018-08-06T10:35:17.429Z,19.34
2018-08-06T10:37:47.803Z,19.56
2018-08-06T10:40:22.042Z,20.00
2018-08-06T10:42:52.568Z,19.06
2018-08-06T10:45:24.279Z,19.41
2018-08-06T10:47:55.331Z,19.07
2018-08-06T10:50:25.761Z,19.51
2018-08-06T10:52:56.211Z,18.35
2018-08-06T10:55:26.981Z,19.10
2018-08-06T10:57:57.407Z,17.89
2018-08-06T11:00:27.689Z,19.29
2018-08-06T11:02:58.187Z,18.96
2018-08-06T11:05:28.503Z,17.59
2018-08-06T11:07:59.688Z,16.57
2018-08-06T11:10:30.475Z,16.72
2018-08-06T11:13:01.011Z,16.34
2018-08-06T11:15:31.627Z,15.12
2018-08-06T11:18:02.332Z,15.33
2018-08-06T11:20:33.052Z,15.06
2018-08-06T11:23:03.443Z,14.82
2018-08-06T11:25:33.812Z,15.18
2018-08-06T11:28:05.236Z,17.09
2018-08-06T11:30:35.569Z,17.62
2018-08-06T11:33:05.964Z,17.78
2018-08-06T11:35:36.389Z,16.19
2018-08-06T11:38:06.915Z,15.96
2018-08-06T11:40:37.062Z,15.85
2018-08-06T11:43:07.600Z,15.61
2018-08-06T11:45:38.120Z,16.93
2018-08-06T11:48:08.279Z,18.66
2018-08-06T11:50:38.876Z,20.22
2018-08-06T11:53:09.846Z,21.96
2018-08-06T11:55:40.376Z,22.62
2018-08-06T11:58:10.886Z,22.83
2018-08-06T12:00:41.265Z,23.44
2018-08-06T12:03:11.819Z,22.28
2018-08-06T12:05:42.412Z,21.93
2018-08-06T12:08:12.899Z,22.75
2018-08-06T12:10:43.404Z,22.89
2018-08-06T12:13:13.920Z,23.17
2018-08-06T12:15:44.500Z,22.76
2018-08-06T12:18:15.007Z,21.63
2018-08-06T12:20:45.519Z,21.00
2018-08-06T12:23:16.114Z,21.75
2018-08-06T12:25:46.597Z,22.56
2018-08-06T12:28:17.047Z,22.20
2018-08-06T12:30:47.487Z,22.08
2018-08-06T12:33:17.908Z,21.72
2018-08-06T12:35:48.242Z,21.37
2018-08-06T12:38:18.981Z,21.79
2018-08-06T12:40:49.236Z,21.88
2018-08-06T12:43:19.697Z,21.93
2018-08-06T12:45:50.044Z,21.91
2018-08-06T12:48:20.565Z,21.33
2018-08-06T12:50:51.155Z,21.92
2018-08-06T12:53:21.600Z,22.21
2018-08-06T12:55:51.980Z,22.42
2018-08-06T12:58:22.513Z,22.52
2018-08-06T13:00:52.950Z,22.57
2018-08-06T13:03:23.354Z,21.83
2018-08-06T13:05:53.957Z,21.88
2018-08-06T13:08:24.674Z,21.34
2018-08-06T13:10:55.161Z,21.47
2018-08-06T13:13:25.701Z,21.01
2018-08-06T13:15:56.278Z,20.95
2018-08-06T13:18:26.734Z,20.25
2018-08-06T13:20:57.325Z,20.76
2018-08-06T13:23:27.890Z,20.02
2018-08-06T13:25:58.368Z,20.62
2018-08-06T13:28:28.850Z,20.99
2018-08-06T13:30:59.332Z,20.74
2018-08-06T13:33:30.157Z,19.58
2018-08-06T13:36:00.640Z,20.05
2018-08-06T13:38:31.335Z,19.75
2018-08-06T13:41:01.827Z,20.23
2018-08-06T13:43:43.963Z,20.03
2018-08-06T13:46:31.707Z,20.84
2018-08-06T13:49:02.371Z,20.17
2018-08-06T13:51:33.031Z,21.14
2018-08-06T13:54:23.483Z,21.04
2018-08-06T13:57:11.856Z,21.36
2018-08-06T14:00:01.004Z,22.29
2018-08-06T14:02:46.711Z,22.25
2018-08-06T14:05:42.942Z,21.41
2018-08-06T14:08:35.021Z,21.32
2018-08-06T14:11:25.903Z,21.45
2018-08-06T14:14:09.577Z,21.92
2018-08-06T14:16:42.797Z,22.09
2018-08-06T14:19:19.287Z,22.09
2018-08-06T14:22:08.063Z,21.91
2018-08-06T14:25:01.787Z,21.23
2018-08-06T14:27:44.470Z,20.60
2018-08-06T14:30:31.255Z,21.60
2018-08-06T14:33:20.697Z,20.86
2018-08-06T14:36:01.233Z,21.95
2018-08-06T14:38:52.989Z,22.09
2018-08-06T14:41:37.092Z,22.92
2018-08-06T14:44:21.266Z,22.87
2018-08-06T14:47:12.360Z,23.34
2018-08-06T14:49:55.248Z,22.51
2018-08-06T14:52:28.311Z,22.46
2018-08-06T14:54:59.079Z,22.57
2018-08-06T14:57:33.515Z,22.76
2018-08-06T15:00:04.263Z,23.22
2018-08-06T15:02:34.626Z,23.53
2018-08-06T15:05:05.283Z,23.48
2018-08-06T15:07:35.766Z,23.29
2018-08-06T15:10:07.408Z,23.81
2018-08-06T15:12:38.665Z,24.38
2018-08-06T15:15:11.585Z,24.70
2018-08-06T15:17:42.053Z,24.45
2018-08-06T15:20:17.256Z,24.65
2018-08-06T15:22:47.913Z,24.52
2018-08-06T15:25:20.214Z,24.11
2018-08-06T15:27:50.964Z,23.98
2018-08-06T15:30:21.449Z,24.29
2018-08-06T15:32:51.885Z,24.30
2018-08-06T15:35:22.463Z,24.37
2018-08-06T15:37:53.171Z,24.10
2018-08-06T15:41:26.983Z,24.15
2018-08-06T15:43:57.274Z,25.66
2018-08-06T15:46:27.839Z,25.24
2018-08-06T15:48:58.248Z,25.23
2018-08-06T15:51:28.823Z,25.76
2018-08-06T15:53:59.320Z,26.46
2018-08-06T15:56:29.807Z,26.78
2018-08-06T15:59:00.215Z,26.74
2018-08-06T16:01:30.556Z,27.45
2018-08-06T16:04:01.128Z,27.38
2018-08-06T16:06:31.594Z,27.24
2018-08-06T16:09:01.920Z,27.11
2018-08-06T16:11:32.532Z,27.52
2018-08-06T16:14:03.090Z,27.23
2018-08-06T16:16:33.577Z,27.25
2018-08-06T16:19:04.016Z,28.19
2018-08-06T16:21:34.536Z,28.00
2018-08-06T16:24:04.975Z,28.90
2018-08-06T16:26:35.471Z,28.44
2018-08-06T16:29:06.370Z,29.16
2018-08-06T16:31:36.877Z,29.26
2018-08-06T16:34:07.504Z,29.44
2018-08-06T16:36:37.903Z,28.57
2018-08-06T16:39:11.463Z,29.05
2018-08-06T16:41:42.170Z,29.01
2018-08-06T16:44:13.082Z,29.45
2018-08-06T16:46:43.746Z,29.18
2018-08-06T16:49:14.219Z,29.91
2018-08-06T16:51:44.799Z,29.74
2018-08-06T16:54:15.312Z,29.68
2018-08-06T16:56:45.857Z,29.31
2018-08-06T16:59:16.225Z,29.79
2018-08-06T17:01:46.904Z,29.99
2018-08-06T17:04:17.390Z,30.36
2018-08-06T17:06:48.023Z,30.89
2018-08-06T17:09:18.264Z,30.70
2018-08-06T17:11:48.704Z,30.89
2018-08-06T17:14:19.169Z,30.68
2018-08-06T17:16:49.781Z,31.28
2018-08-06T17:19:20.327Z,30.98
2018-08-06T17:21:50.980Z,31.27
2018-08-06T17:24:22.522Z,31.60
2018-08-06T17:26:53.653Z,31.95
2018-08-06T17:29:24.452Z,31.78
2018-08-06T17:31:55.184Z,31.28
2018-08-06T17:34:25.792Z,31.50
2018-08-06T17:36:56.658Z,31.81
2018-08-06T17:39:30.986Z,31.82
2018-08-06T17:42:01.416Z,31.62
2018-08-06T17:44:31.992Z,32.29
2018-08-06T17:47:02.668Z,32.89
2018-08-06T17:49:33.141Z,33.56
2018-08-06T17:52:03.515Z,33.83
2018-08-06T17:54:34.022Z,34.54
2018-08-06T17:57:04.496Z,34.93
2018-08-06T17:59:34.919Z,34.93
2018-08-06T18:02:05.728Z,35.35
2018-08-06T18:04:36.354Z,35.21
2018-08-06T18:07:07.094Z,35.19
2018-08-06T18:09:37.683Z,35.35
2018-08-06T18:12:08.313Z,35.66
2018-08-06T18:14:38.834Z,35.87
2018-08-06T18:17:09.491Z,36.53
2018-08-06T18:19:40.008Z,36.50
2018-08-06T18:22:10.428Z,36.51
2018-08-06T18:24:41.491Z,36.60
2018-08-06T18:27:11.927Z,36.94
2018-08-06T18:29:42.571Z,37.38
2018-08-06T18:32:13.041Z,38.45
2018-08-06T18:34:43.464Z,38.83
2018-08-06T18:37:14.046Z,38.66
2018-08-06T18:39:44.525Z,39.03
2018-08-06T18:42:18.381Z,39.38
2018-08-06T18:44:48.798Z,39.79
2018-08-06T18:47:20.152Z,40.08
2018-08-06T18:49:52.022Z,40.25
2018-08-06T18:52:22.512Z,40.11
2018-08-06T18:54:53.145Z,40.32
2018-08-06T18:57:23.645Z,40.04
2018-08-06T18:59:54.419Z,40.06
2018-08-06T19:02:25.371Z,40.32
2018-08-06T19:04:55.695Z,40.48
2018-08-06T19:07:26.455Z,40.56
2018-08-06T19:09:56.946Z,40.20
2018-08-06T19:12:32.649Z,40.47
2018-08-06T19:15:03.413Z,40.60
2018-08-06T19:17:38.932Z,40.91
2018-08-06T19:20:09.405Z,41.08
2018-08-06T19:22:40.461Z,41.89
2018-08-06T19:25:15.855Z,41.83
2018-08-06T19:27:46.269Z,41.61
2018-08-06T19:30:17.081Z,41.24
2018-08-06T19:32:47.569Z,41.93
2018-08-06T19:35:18.054Z,41.81
2018-08-06T19:37:49.841Z,41.50
2018-08-06T19:40:20.248Z,41.27
2018-08-06T19:42:55.560Z,41.50
2018-08-06T19:45:26.235Z,41.20
2018-08-06T19:47:56.874Z,41.12
2018-08-06T19:50:32.307Z,40.41
2018-08-06T19:53:02.689Z,40.62
2018-08-06T19:55:37.953Z,41.34
2018-08-06T19:58:08.582Z,41.51
2018-08-06T20:00:39.010Z,41.06
2018-08-06T20:03:09.516Z,40.94
2018-08-06T20:05:40.106Z,41.13
2018-08-06T20:08:10.689Z,41.01
2018-08-06T20:10:41.225Z,42.05
2018-08-06T20:13:11.775Z,41.95
2018-08-06T20:15:42.309Z,42.25
2018-08-06T20:18:13.318Z,41.85
2018-08-06T20:20:43.822Z,42.56
2018-08-06T20:23:14.587Z,42.83
2018-08-06T20:25:44.998Z,42.54
2018-08-06T20:28:15.694Z,42.62
2018-08-06T20:30:46.190Z,42.80
2018-08-06T20:33:16.585Z,43.52
2018-08-06T20:35:46.858Z,43.45
2018-08-06T20:38:17.363Z,43.94
2018-08-06T20:40:47.974Z,44.25
2018-08-06T20:43:18.348Z,44.43
2018-08-06T20:45:48.747Z,44.59
2018-08-06T20:48:19.344Z,44.75
2018-08-06T20:50:49.843Z,45.15
2018-08-06T20:53:21.505Z,45.27
2018-08-06T20:55:51.880Z,45.08
2018-08-06T20:58:23.297Z,45.60
2018-08-06T21:00:53.934Z,46.05
2018-08-06T21:03:24.276Z,46.10
2018-08-06T21:05:55.000Z,46.14
2018-08-06T21:08:25.517Z,46.13
2018-08-06T21:10:55.986Z,46.34
2018-08-06T21:13:27.133Z,46.54
2018-08-06T21:15:57.615Z,47.21
2018-08-06T21:18:28.484Z,48.27
2018-08-06T21:20:58.740Z,48.63
2018-08-06T21:23:29.212Z,49.15
2018-08-06T21:25:59.847Z,49.32
2018-08-06T21:28:30.291Z,48.90
2018-08-06T21:31:00.892Z,49.72
2018-08-06T21:33:31.584Z,50.10
2018-08-06T21:36:02.192Z,49.18
2018-08-06T21:38:32.512Z,49.63
2018-08-06T21:41:03.097Z,49.92
2018-08-06T21:43:33.886Z,50.09
2018-08-06T21:46:04.210Z,50.09
2018-08-06T21:48:34.768Z,49.64
2018-08-06T21:51:05.576Z,49.98
2018-08-06T21:53:36.152Z,50.06
2018-08-06T21:56:07.020Z,51.39
2018-08-06T21:58:37.334Z,50.88
2018-08-06T22:01:08.084Z,51.18
2018-08-06T22:03:38.609Z,51.49
2018-08-06T22:06:09.139Z,49.74
2018-08-06T22:08:40.415Z,49.09
2018-08-06T22:11:10.943Z,49.85
2018-08-06T22:13:41.450Z,49.44
2018-08-06T22:16:12.030Z,49.62
2018-08-06T22:18:42.862Z,49.59
2018-08-06T22:21:13.293Z,50.03
2018-08-06T22:23:43.949Z,49.89
2018-08-06T22:26:16.479Z,51.10
2018-08-06T22:28:46.961Z,51.35
2018-08-06T22:31:18.667Z,52.08
2018-08-06T22:33:49.543Z,51.74
2018-08-06T22:36:19.968Z,51.78
2018-08-06T22:38:50.582Z,52.63
2018-08-06T22:41:21.278Z,52.72
2018-08-06T22:43:52.137Z,52.67
2018-08-06T22:46:23.902Z,53.17
2018-08-06T22:48:54.367Z,52.86
2018-08-06T22:51:26.613Z,53.59
2018-08-06T22:53:57.225Z,54.08
2018-08-06T22:56:27.736Z,54.50
2018-08-06T22:58:58.283Z,55.62
2018-08-06T23:01:28.705Z,54.56
2018-08-06T23:03:59.047Z,55.06
2018-08-06T23:06:29.915Z,55.47
2018-08-06T23:09:00.491Z,55.59
2018-08-06T23:11:30.938Z,55.44
2018-08-06T23:14:01.615Z,54.97
2018-08-06T23:16:32.573Z,54.84
2018-08-06T23:19:03.114Z,56.07
2018-08-06T23:21:33.640Z,55.90
2018-08-06T23:24:04.703Z,56.56
2018-08-06T23:26:35.722Z,55.79
2018-08-06T23:29:06.049Z,55.75
2018-08-06T23:31:36.597Z,55.35
2018-08-06T23:34:07.015Z,55.55
2018-08-06T23:36:37.442Z,56.18
2018-08-06T23:39:10.158Z,55.87
2018-08-06T23:41:40.789Z,56.23
2018-08-06T23:44:11.163Z,55.82
2018-08-06T23:46:41.605Z,56.24
2018-08-06T23:49:12.644Z,56.79
2018-08-06T23:51:43.201Z,57.14
2018-08-06T23:54:14.024Z,57.94
2018-08-06T23:56:44.462Z,57.68
2018-08-06T23:59:15.056Z,57.77
